createdAt,value
2018-05-26T06:14:51.066Z,5.90
2018-05-26T06:19:37.533Z,4.90
2018-05-26T06:22:06.599Z,5.20
2018-05-26T06:24:36.692Z,5.00
2018-05-26T06:27:06.558Z,5.53
2018-05-26T06:29:35.922Z,5.23
2018-05-26T06:32:06.051Z,5.40
2018-05-26T06:34:35.202Z,5.47
2018-05-26T06:37:05.575Z,5.30
2018-05-26T06:39:35.126Z,4.80
2018-05-26T06:42:04.986Z,6.67
2018-05-26T06:44:34.270Z,5.30
2018-05-26T06:47:04.401Z,5.40
2018-05-26T19:46:49.839Z,9.20
2018-05-26T19:49:20.045Z,8.50
2018-05-26T19:51:54.427Z,8.00
2018-05-26T19:54:23.645Z,8.48
2018-05-26T19:56:54.223Z,8.60
2018-05-26T20:03:15.820Z,8.10
2018-05-26T20:05:48.843Z,8.33
2018-05-26T20:08:20.746Z,10.17
2018-05-26T20:10:50.375Z,9.53
2018-05-26T20:13:20.384Z,9.50
2018-05-26T20:15:49.738Z,8.47
2018-05-26T20:18:21.415Z,8.57
2018-05-26T20:20:54.768Z,8.57
2018-05-26T20:23:25.782Z,8.63
2018-05-26T20:25:55.330Z,9.57
2018-05-26T20:28:26.914Z,9.50
2018-05-26T20:30:57.062Z,9.47
2018-05-26T20:33:26.263Z,10.03
2018-05-26T20:36:08.128Z,10.73
2018-05-26T20:38:37.941Z,10.37
2018-05-26T20:41:07.186Z,12.00
2018-05-26T20:43:37.525Z,8.83
2018-05-26T20:46:07.156Z,11.57
2018-05-26T20:48:37.515Z,10.10
2018-05-26T20:51:06.646Z,9.70
2018-05-26T20:53:36.642Z,9.13
2018-05-26T20:56:06.082Z,9.10
2018-05-26T20:58:35.192Z,10.07
2018-05-26T21:01:08.209Z,10.00
2018-05-26T21:03:39.533Z,9.33
2018-05-26T21:06:12.400Z,9.33
2018-05-26T21:08:42.931Z,9.23
2018-05-26T21:11:12.392Z,9.13
2018-05-26T21:13:48.191Z,9.57
2018-05-26T21:16:17.366Z,9.30
2018-05-26T21:18:47.214Z,9.00
2018-05-26T21:21:16.316Z,9.17
2018-05-26T21:23:45.379Z,9.10
